Flight Track Log - Related Links

Times and Time Zones

All times are in EST time to prevent confusion due to time zone crossing. See the UAL3732 flight status page for this flight to view local times or setup timezone preferences in your user account.

Time Position Orientation Groundspeed Altitude Reporting Facility
EST Latitude Longitude Course Direction KTS MPH feet Rate Location/Type
Fri 08:33:56 PM 35.1933 -80.9533 179° South 148 170 2,100  Level Atlanta Center
Fri 08:34:57 PM 35.1433 -80.9528 179° South 205 236 4,000 2,213 Climbing Atlanta Center
Fri 08:35:58 PM 35.1133 -81.0122 238° Southwest 256 295 6,600 1,927 Climbing Atlanta Center
Fri 08:36:46 PM 35.1194 -81.0856 276° West 250 288 7,500 1,082 Climbing Atlanta Center
Fri 08:36:59 PM 35.1217 -81.0958 285° West 252 290 7,700 2,100 Climbing Atlanta Center
Fri 08:37:46 PM 35.1275 -81.1642 276° West 265 305 9,600 2,243 Climbing Atlanta Center
Fri 08:38:46 PM 35.1769 -81.2308 312° West 265 305 11,700 1,900 Climbing Atlanta Center
Fri 08:39:46 PM 35.2789 -81.2097 10° North 268 308 13,400 1,850 Climbing Atlanta Center
Fri 08:40:46 PM 35.3453 -81.1031 53° Northeast 299 344 15,400 2,300 Climbing Atlanta Center
Fri 08:41:46 PM 35.4156 -80.9936 52° Northeast 349 402 18,000 2,600 Climbing Atlanta Center
Fri 08:42:46 PM 35.5231 -80.9511 18° North 368 423 20,600 2,100 Climbing Atlanta Center
Fri 08:43:46 PM 35.6242 -80.9986 339° North 352 405 22,200 1,250 Climbing Atlanta Center
Fri 08:44:46 PM 35.7156 -81.0592 332° Northwest 382 440 23,100 950 Climbing Atlanta Center
Fri 08:45:46 PM 35.8150 -81.1194 334° Northwest 387 445 24,100 1,050 Climbing Atlanta Center
Fri 08:46:46 PM 35.9067 -81.2008 324° Northwest 394 453 25,200 1,150 Climbing Atlanta Center
Fri 08:47:46 PM 35.9919 -81.2900 320° Northwest 399 459 26,400 1,250 Climbing Atlanta Center
Fri 08:48:46 PM 36.0775 -81.3850 318° Northwest 405 466 27,700 1,450 Climbing Atlanta Center
Fri 08:49:46 PM 36.1650 -81.4797 319° Northwest 415 478 29,300 1,450 Climbing Atlanta Center
Fri 08:50:46 PM 36.2567 -81.5747 320° Northwest 421 484 30,600 1,700 Climbing Atlanta Center
Fri 08:51:46 PM 36.3442 -81.6750 317° Northwest 427 491 32,700 1,705 Climbing Atlanta Center
Fri 08:53:49 PM 36.5236 -81.8697 319° Northwest 410 472 35,800 1,070 Climbing Indianapolis Center
Fri 08:54:51 PM 36.6081 -81.9656 318° Northwest 410 472 36,000 98 Climbing Indianapolis Center
Fri 08:55:52 PM 36.6997 -82.0675 318° Northwest 432 497 36,000  Level Indianapolis Center
Fri 08:56:53 PM 36.7944 -82.1700 319° Northwest 447 514 36,000  Level Indianapolis Center
Fri 08:57:55 PM 36.8856 -82.2719 318° Northwest 444 511 36,000  Level Indianapolis Center
Fri 08:58:56 PM 36.9889 -82.3886 318° Northwest 433 498 36,000  Level Indianapolis Center
Fri 08:59:57 PM 37.0808 -82.4914 318° Northwest 441 507 36,000  Level Indianapolis Center
Fri 09:00:59 PM 37.1742 -82.5967 318° Northwest 451 519 36,000  Level Indianapolis Center
Fri 09:02:00 PM 37.2656 -82.6992 318° Northwest 448 516 36,000  Level Indianapolis Center
Fri 09:03:02 PM 37.3558 -82.8028 318° Northwest 442 509 36,000  Level Indianapolis Center
Fri 09:04:03 PM 37.4486 -82.9078 318° Northwest 447 514 36,000  Level Indianapolis Center
Fri 09:05:04 PM 37.5425 -83.0144 318° Northwest 453 521 36,000  Level Indianapolis Center
Fri 09:06:06 PM 37.6500 -83.1375 318° Northwest 450 518 36,000  Level Indianapolis Center
Fri 09:07:07 PM 37.7419 -83.2450 317° Northwest 449 517 36,000  Level Indianapolis Center
Fri 09:08:09 PM 37.8322 -83.3481 318° Northwest 443 510 36,000  Level Indianapolis Center
Fri 09:09:10 PM 37.9219 -83.4533 317° Northwest 439 505 36,000 -98 Level Indianapolis Center
Fri 09:10:12 PM 38.0122 -83.5558 318° Northwest 437 503 35,800 -439 Descending Indianapolis Center
Fri 09:11:13 PM 38.1169 -83.6414 327° Northwest 447 514 35,100 -393 Descending Indianapolis Center
Fri 09:12:14 PM 38.2211 -83.7261 327° Northwest 445 512 35,000 -49 Descending Indianapolis Center
Fri 09:13:16 PM 38.3281 -83.8147 327° Northwest 454 522 35,000  Level Indianapolis Center
Fri 09:14:17 PM 38.4519 -83.9197 326° Northwest 457 526 35,000  Level Indianapolis Center
Fri 09:15:19 PM 38.5581 -84.0053 328° Northwest 454 522 35,000  Level Indianapolis Center
Fri 09:16:20 PM 38.6492 -84.0825 327° Northwest 454 522 35,000  Level Indianapolis Center
Fri 09:17:21 PM 38.7544 -84.1714 327° Northwest 454 522 35,000  Level Indianapolis Center
Fri 09:18:23 PM 38.8800 -84.2767 327° Northwest 450 518 35,000  Level Indianapolis Center
Fri 09:19:24 PM 38.9847 -84.3647 327° Northwest 449 517 35,000  Level Indianapolis Center
Fri 09:20:25 PM 39.0892 -84.4544 326° Northwest 449 517 35,000 -293 Level Indianapolis Center
Fri 09:21:27 PM 39.1933 -84.5436 326° Northwest 449 517 34,400 -1,317 Descending Indianapolis Center
Fri 09:22:28 PM 39.2989 -84.6342 326° Northwest 452 520 32,300 -1,967 Descending Indianapolis Center
Fri 09:23:29 PM 39.4042 -84.7231 327° Northwest 451 519 30,400 -1,707 Descending Indianapolis Center
Fri 09:24:31 PM 39.5136 -84.8153 327° Northwest 461 531 28,800 -1,171 Descending Indianapolis Center
Fri 09:25:32 PM 39.6200 -84.9094 326° Northwest 460 529 28,000 -393 Descending Indianapolis Center
Fri 09:26:33 PM 39.7247 -84.9989 327° Northwest 458 527 28,000  Level Indianapolis Center
Fri 09:27:35 PM 39.8278 -85.0883 326° Northwest 454 522 28,000 -341 Level Indianapolis Center
Fri 09:28:36 PM 39.9497 -85.1964 326° Northwest 449 517 27,300 -836 Descending Indianapolis Center
Fri 09:29:37 PM 40.0536 -85.2861 327° Northwest 449 517 26,300 -634 Descending Indianapolis Center
Fri 09:30:39 PM 40.1556 -85.3778 326° Northwest 449 517 26,000 -634 Descending Indianapolis Center
Fri 09:31:40 PM 40.2558 -85.4669 326° Northwest 444 511 25,000 -984 Descending Indianapolis Center
Fri 09:32:41 PM 40.3531 -85.5536 326° Northwest 434 499 24,000 -484 Descending Indianapolis Center
Fri 09:33:44 PM 40.4475 -85.6364 326° Northwest 420 483 24,000 -432 Level Chicago Center
Fri 09:34:46 PM 40.5450 -85.7642 315° West 418 481 23,100 -976 Descending Chicago Center
Fri 09:35:47 PM 40.6200 -85.8714 313° West 411 473 22,000 -1,171 Descending Chicago Center
Fri 09:36:49 PM 40.6911 -85.9717 313° West 383 441 20,700 -1,161 Descending Chicago Center
Fri 09:37:51 PM 40.7567 -86.0647 313° West 359 413 19,600 -1,065 Descending Chicago Center
Fri 09:38:53 PM 40.8242 -86.1608 313° West 356 410 18,500 -1,073 Descending Chicago Center
Fri 09:39:54 PM 40.8931 -86.2572 313° West 359 413 17,400 -976 Descending Chicago Center
Fri 09:40:56 PM 40.9594 -86.3514 313° West 353 406 16,500 -919 Descending Chicago Center
Fri 09:41:58 PM 41.0250 -86.4447 313° West 348 400 15,500 -976 Descending Chicago Center
Fri 09:42:59 PM 41.1008 -86.5536 313° West 338 389 14,500 -976 Descending Chicago Center
Fri 09:44:01 PM 41.1614 -86.6414 313° West 326 375 13,500 -871 Descending Chicago Center
Fri 09:45:03 PM 41.2219 -86.7272 313° West 319 367 12,700 -829 Descending Chicago Center
Fri 09:46:04 PM 41.2781 -86.8103 312° West 321 369 11,800 -829 Descending Chicago Center
Fri 09:47:06 PM 41.3375 -86.8975 312° West 319 367 11,000 -390 Descending Chicago Center
Fri 09:48:07 PM 41.4100 -87.0017 313° West 318 366 11,000  Level Chicago Center
Fri 09:49:09 PM 41.4694 -87.0897 312° West 320 368 11,000 48 Level Chicago Center
Fri 09:50:11 PM 41.5286 -87.1753 313° West 317 365 11,100 49 Climbing Chicago Center
Fri 09:51:12 PM 41.5858 -87.2661 310° West 321 369 11,100 -195 Level Chicago Center
Fri 09:52:14 PM 41.6408 -87.3544 310° West 315 362 10,700 -488 Descending Chicago Center
Fri 09:53:15 PM 41.6950 -87.4400 310° West 306 352 10,100 -537 Descending Chicago Center
Fri 09:54:17 PM 41.7744 -87.4925 334° Northwest 272 313 9,600 -774 Descending Chicago Center
Fri 09:55:19 PM 41.8444 -87.4944 359° North 255 293 8,500 -732 Descending Chicago Center
Fri 09:56:20 PM 41.8903 -87.4364 43° Northeast 228 262 8,100 -878 Descending Chicago Center
Fri 09:57:22 PM 41.9472 -87.4458 353° North 206 237 6,700 -1,220 Descending Chicago Center
Fri 09:58:23 PM 41.9622 -87.5222 285° West 213 245 5,600 -810 Descending Chicago Center
Fri 09:59:28 PM 41.9658 -87.6181 273° West 215 247 5,000 -750 Descending Chicago Center
Fri 09:59:59 PM 41.9667 -87.6667 271° West 209 241 4,400 -1,139 Descending Chicago TRACON
Fri 10:00:47 PM 41.9667 -87.7167 270° West 184 212 3,500 -1,053 Descending Chicago TRACON
Fri 10:01:53 PM 41.9667 -87.7833 270° West 175 201 2,400 -893 Descending Chicago TRACON
Fri 10:02:48 PM 41.9667 -87.8333 270° West 124 143 1,700 -730 Descending Chicago TRACON
Fri 10:03:48 PM 41.9667 -87.8833 270° West 117 135 1,000 -700 Descending Chicago TRACON

Login

Don't have an account? Register now (free) for customized features, flight alerts, and more!